WetterOnline ( http://www.wetteronline.de )

Wetter aktuell Pfälzer Wald (in 400m)

Aktuelles Wetter: Weinbiet/Pfalz (557m)

6-stündlich | Neueste Meldungen
Ortszeit Temperatur Wetter
Mi, 19.12. 1:00 -0.6° C bedeckt
Di, 18.12. 19:00 1.5° C wolkig
Di, 18.12. 13:00 2.3° C leicht bewölkt
Di, 18.12. 7:00 2.0° C bedeckt
Di, 18.12. 1:00 2.8° C Nebel
Mo, 17.12. 19:00 2.9° C Sprühregen
Mo, 17.12. 13:00 1.9° C Nebel
Mo, 17.12. 7:00 0.7° C Nebel
Ortszeit Temperatur Wetter
Mi, 19.12. 1:30 0.8° C bedeckt
Mi, 19.12. 1:20 0.8° C bedeckt
Mi, 19.12. 1:10 0.3° C bedeckt
Mi, 19.12. 1:00 -0.6° C bedeckt
Mi, 19.12. 0:40 -0.6° C bedeckt
Mi, 19.12. 0:30 -0.5° C bedeckt
Mi, 19.12. 0:00 -0.3° C bedeckt
Di, 18.12. 23:30 -0.3° C bedeckt
Di, 18.12. 23:00 -0.2° C bedeckt
Di, 18.12. 22:30 -0.0° C wolkig
Ortszeit Relative Feuchte Sichtweite
Mi, 19.12. 1:00 91% 10 km
Di, 18.12. 19:00 88% 10 km
Di, 18.12. 13:00 88% 10 km
Di, 18.12. 7:00 99% 10 km
Di, 18.12. 1:00 99% 0.2 km
Mo, 17.12. 19:00 99% 100 m
Mo, 17.12. 13:00 99% 100 m
Mo, 17.12. 7:00 99% 0.2 km
Ortszeit Relative Feuchte Sichtweite
Mi, 19.12. 1:30 83% 10 km
Mi, 19.12. 1:20 83% -
Mi, 19.12. 1:10 82% -
Mi, 19.12. 1:00 91% 10 km
Mi, 19.12. 0:40 91% -
Mi, 19.12. 0:30 91% 10 km
Mi, 19.12. 0:00 90% 10 km
Di, 18.12. 23:30 92% 10 km
Di, 18.12. 23:00 90% 10 km
Di, 18.12. 22:30 89% 10 km
Ortszeit Niederschlagsmenge Niederschlagsart
Mi, 19.12. 1:00 0.0 l/m2 in 6 Std. -
Di, 18.12. 19:00 0.0 l/m2 in 12 Std. -
Di, 18.12. 13:00 0.0 l/m2 in 6 Std. -
Di, 18.12. 7:00 0.1 l/m2 in 12 Std. Sprühregen
Di, 18.12. 1:00 0.1 l/m2 in 6 Std. Sprühregen
Mo, 17.12. 19:00 0.6 l/m2 in 12 Std. Regen
Mo, 17.12. 13:00 0.5 l/m2 in 6 Std. Regen
Mo, 17.12. 7:00 0.0 l/m2 in 12 Std. -
Ortszeit Niederschlagsmenge Niederschlagsart
Mi, 19.12. 1:30 0.0 l/m2 in 1 Std. -
Mi, 19.12. 1:20 keine Meldung -
Mi, 19.12. 1:10 keine Meldung -
Mi, 19.12. 1:00 0.0 l/m2 in 1 Std. -
Mi, 19.12. 0:40 keine Meldung -
Mi, 19.12. 0:30 0.0 l/m2 in 1 Std. -
Mi, 19.12. 0:00 0.0 l/m2 in 1 Std. -
Di, 18.12. 23:30 0.0 l/m2 in 1 Std. -
Di, 18.12. 23:00 0.0 l/m2 in 1 Std. -
Di, 18.12. 22:30 0.0 l/m2 in 1 Std. -
Ortszeit Stärke Spitze Richtung
km/h Bft. km/h Grad Sektor
Mi, 19.12. 1:00 25 4 43 150° SO
Di, 18.12. 19:00 26 4 37 120° SO
Di, 18.12. 13:00 18 3 32 130° SO
Di, 18.12. 7:00 15 3 37 220° SW
Di, 18.12. 1:00 22 4 43 260° W
Mo, 17.12. 19:00 31 5 52 260° W
Mo, 17.12. 13:00 26 4 43 260° W
Mo, 17.12. 7:00 14 3 22 190° S
Ortszeit Stärke Spitze Richtung
km/h Bft. km/h Grad Sektor
Mi, 19.12. 1:30 25 4 29 160° S
Mi, 19.12. 1:20 25 4 - 160° S
Mi, 19.12. 1:10 25 4 - 160° S
Mi, 19.12. 1:00 25 4 29 150° SO
Mi, 19.12. 0:40 20 4 - 140° SO
Mi, 19.12. 0:30 20 4 28 130° SO
Mi, 19.12. 0:00 22 4 33 140° SO
Di, 18.12. 23:30 26 4 33 130° SO
Di, 18.12. 23:00 28 4 39 120° SO
Di, 18.12. 22:30 30 5 39 120° SO
Ortszeit Untergrenze Bedeckung Gattung
total tief tief mittel hoch
Mi, 19.12. 1:00 3300 m 8/8 8/8 - - -
Di, 18.12. 19:00 7200 m 8/8 0/8 - - -
Di, 18.12. 13:00 9000 m 8/8 0/8 - - -
Di, 18.12. 7:00 60 m 8/8 8/8 - - -
Di, 18.12. 1:00 30 m 8/8 8/8 - - -
Mo, 17.12. 19:00 <30 m 7/8 7/8 - - -
Mo, 17.12. 13:00 <30 m 8/8 8/8 - - -
Mo, 17.12. 7:00 <30 m 8/8 8/8 - - -
Ortszeit Bedeckungsgrad in Achtel und Wolkenuntergrenze
Mi, 19.12. 1:30 8(3000m) 8(4500m)
Mi, 19.12. 1:20 8(3000m) 8(4500m)
Mi, 19.12. 1:10 8(3000m) 8(4800m)
Mi, 19.12. 1:00 5(3300m) 8(3900m) 8(4800m)
Mi, 19.12. 0:40 8(3600m) 8(4500m)
Mi, 19.12. 0:30 8(3900m) 8(4500m)
Mi, 19.12. 0:00 8(3900m)
Di, 18.12. 23:30 8(3900m) 8(6300m) 8(6900m)
Di, 18.12. 23:00 4(3900m) 8(6900m) 8(8700m)
Di, 18.12. 22:30 7(7200m) 8(9000m) 8(9000m)
Ortszeit Luftdruck NN (hPa) Tendenz (hPa in 3 Std.)
Mi, 19.12. 1:00 1018 - 1,4
Di, 18.12. 19:00 1021 - 0,8
Di, 18.12. 13:00 1024 - 2,4
Di, 18.12. 7:00 1028 + 0,1
Di, 18.12. 1:00 1029 + 0,6
Mo, 17.12. 19:00 1026 + 2,1
Mo, 17.12. 13:00 1022 + 0,7
Mo, 17.12. 7:00 1020 + 1,6
Ortszeit Luftdruck NN (hPa) Tendenz (hPa in 3 Std.)
Mi, 19.12. 1:30 1018 - 1,3
Mi, 19.12. 1:20 1018 keine Meldung
Mi, 19.12. 1:10 1018 keine Meldung
Mi, 19.12. 1:00 1018 - 1,4
Mi, 19.12. 0:40 1019 keine Meldung
Mi, 19.12. 0:30 1018 - 1,6
Mi, 19.12. 0:00 1019 - 1,5
Di, 18.12. 23:30 1019 - 1,3
Di, 18.12. 23:00 1019 - 1,7
Di, 18.12. 22:30 1019 - 1,3
Ortszeit Schneehöhe (cm)
Mi, 19.12. 1:00 0
Di, 18.12. 19:00 0
Di, 18.12. 13:00 0
Di, 18.12. 7:00 0
Di, 18.12. 1:00 0
Mo, 17.12. 19:00 0
Mo, 17.12. 13:00 -
Mo, 17.12. 7:00 2
Ortszeit Schneehöhe (cm)
Mi, 19.12. 1:30 0
Mi, 19.12. 1:20 0
Mi, 19.12. 1:10 0
Mi, 19.12. 1:00 0
Mi, 19.12. 0:40 0
Mi, 19.12. 0:30 0
Mi, 19.12. 0:00 0
Di, 18.12. 23:30 0
Di, 18.12. 23:00 0
Di, 18.12. 22:30 0
Link zu dieser Seite / Seite empfehlen

Das Wetter in ...